Pagrindinis puslapis
METAR-TAF:

METAR-TAF

Oro uostai :

Rodas, Graikija

platuma: 36-24N, ilguma: 028-05E, Aukštis: 4 m

Dabartinis oras

Ataskaita buvo paskelbta 29 minutes, ne 02:20 UTC
Vėjas 13 kt iš Vakarų
Temperatūra 8°C
Drėgmė 57%
Slėgis 1015 hPa
Matomumas 10 km arba daugiau
Mažai debesys ne aukštis 2000 ft

METAR: LGRP 190220Z 28013KT 9999 FEW020 08/M00 Q1015 NOSIG

Laikas: 04:49 (02:49 UTC)

Prognozė

Ataskaita buvo paskelbta 3 valandos ir 49 minutes, ne 23:00 UTC
Prognozė galioja nuo 19 metu 00 UTC su 19 metu 24 UTC
Vėjas 12 kt iš Šiaurės Vakarų
Matomumas 10 km arba daugiau
Mažai debesys ne aukštis 1000 ft
Išsisklaidę debesys ne aukštis 2000 ft
Tapsmas
nuo 19 metu 04 UTC su 19 metu 06 UTC
Vėjas 15 kt iš Vakarų/Šiaurės Vakarų su gūsio iki 25 kt
Tapsmas
nuo 19 metu 10 UTC su 19 metu 12 UTC
Vėjas 20 kt iš Vakarų/Šiaurės Vakarų su gūsio iki 30 kt

TAF: LGRP 182300Z 1900/1924 32012KT 9999 FEW010 SCT020 BECMG 1904/1906 30015G25KT BECMG 1910/1912 30020G30KT

Orai ataskaitas ir orų prognozės (METAR, TAF).

turimą stotys yra geltonos ir raudonos taškus žemėlapyje.

Perkelti pele per norėdami pamatyti stoties vardą.

Tada spustelėkite, norėdami matyti oro stebėjimo ir prognozės.

Norėdami pakeisti žemėlapį: spustelėkite ant žalios mygtukų su juodo kryžiaus žemyn,; žalią mygtuką su brūkšneliu, jei norite nutolinti; arba žalių rodyklių gretimoms žemėlapius.


METAR-TAF: